Terminal Aerodrome Forecast
Issued by NWS

Home | Current Version | Previous Version | Text Only | Print | Product List | Glossary On
Versions: 1 2 3 4 5 6 7 8 9 10 11 12 13 14 15 16
000
FTUS41 KBTV 232339
TAFPBG
TAF
KPBG 232339Z 2400/2424 00000KT P6SM OVC045
      TEMPO 2401/2405 6SM SHRA OVC025
     FM241100 VRB03KT 6SM BR BKN040
     FM241200 31004KT P6SM SCT035
     FM241400 31008KT P6SM FEW110
     FM241900 28009KT P6SM VCSH SCT060=

USA.gov is the U.S. government's official web portal to all federal, state and local government web resources and services.